sensor_id;sensor_type;location;lat;lon;timestamp;P1;durP1;ratioP1;P2;durP2;ratioP2
39032;SDS011;24794;51.982;5.878;2023-06-22T00:00:43;3.78;;;2.20;;
39032;SDS011;24794;51.982;5.878;2023-06-22T00:01:44;3.30;;;1.92;;
39032;SDS011;24794;51.982;5.878;2023-06-22T00:02:45;3.33;;;1.80;;
39032;SDS011;24794;51.982;5.878;2023-06-22T00:03:45;3.38;;;1.90;;
39032;SDS011;24794;51.982;5.878;2023-06-22T00:04:46;2.88;;;1.88;;
39032;SDS011;24794;51.982;5.878;2023-06-22T00:05:47;2.40;;;1.60;;
39032;SDS011;24794;51.982;5.878;2023-06-22T00:06:48;2.22;;;1.60;;
39032;SDS011;24794;51.982;5.878;2023-06-22T00:07:48;2.70;;;1.65;;
39032;SDS011;24794;51.982;5.878;2023-06-22T00:08:49;2.92;;;1.73;;
39032;SDS011;24794;51.982;5.878;2023-06-22T00:09:49;4.30;;;2.00;;
39032;SDS011;24794;51.982;5.878;2023-06-22T00:10:50;2.35;;;1.55;;
39032;SDS011;24794;51.982;5.878;2023-06-22T00:11:50;3.45;;;2.00;;
39032;SDS011;24794;51.982;5.878;2023-06-22T00:12:51;2.83;;;1.92;;
39032;SDS011;24794;51.982;5.878;2023-06-22T00:13:51;3.60;;;2.25;;
39032;SDS011;24794;51.982;5.878;2023-06-22T00:14:52;3.42;;;2.20;;
39032;SDS011;24794;51.982;5.878;2023-06-22T00:15:52;4.28;;;2.35;;
39032;SDS011;24794;51.982;5.878;2023-06-22T00:16:53;3.30;;;2.33;;
39032;SDS011;24794;51.982;5.878;2023-06-22T00:17:58;4.80;;;2.63;;
39032;SDS011;24794;51.982;5.878;2023-06-22T00:18:59;4.15;;;2.55;;
39032;SDS011;24794;51.982;5.878;2023-06-22T00:20:00;4.63;;;2.40;;
39032;SDS011;24794;51.982;5.878;2023-06-22T00:21:01;3.72;;;2.28;;
39032;SDS011;24794;51.982;5.878;2023-06-22T00:22:01;4.95;;;2.55;;
39032;SDS011;24794;51.982;5.878;2023-06-22T00:23:03;3.72;;;2.10;;
39032;SDS011;24794;51.982;5.878;2023-06-22T00:24:08;4.70;;;2.38;;
39032;SDS011;24794;51.982;5.878;2023-06-22T00:25:09;4.82;;;2.15;;
39032;SDS011;24794;51.982;5.878;2023-06-22T00:26:09;4.05;;;2.50;;
39032;SDS011;24794;51.982;5.878;2023-06-22T00:27:11;4.38;;;2.40;;
39032;SDS011;24794;51.982;5.878;2023-06-22T00:28:12;3.80;;;2.20;;
39032;SDS011;24794;51.982;5.878;2023-06-22T00:29:12;3.50;;;2.20;;
39032;SDS011;24794;51.982;5.878;2023-06-22T00:30:13;3.80;;;2.28;;
39032;SDS011;24794;51.982;5.878;2023-06-22T00:31:13;3.75;;;2.65;;
39032;SDS011;24794;51.982;5.878;2023-06-22T00:32:14;3.00;;;2.22;;
39032;SDS011;24794;51.982;5.878;2023-06-22T00:33:14;3.83;;;2.40;;
39032;SDS011;24794;51.982;5.878;2023-06-22T00:34:16;3.65;;;2.40;;
39032;SDS011;24794;51.982;5.878;2023-06-22T00:35:16;4.68;;;2.60;;
39032;SDS011;24794;51.982;5.878;2023-06-22T00:36:17;3.67;;;2.22;;
39032;SDS011;24794;51.982;5.878;2023-06-22T00:37:19;4.45;;;2.17;;
39032;SDS011;24794;51.982;5.878;2023-06-22T00:38:19;3.00;;;2.08;;
39032;SDS011;24794;51.982;5.878;2023-06-22T00:39:20;4.47;;;2.47;;
39032;SDS011;24794;51.982;5.878;2023-06-22T00:40:20;3.95;;;2.50;;
39032;SDS011;24794;51.982;5.878;2023-06-22T00:41:21;4.80;;;2.38;;
39032;SDS011;24794;51.982;5.878;2023-06-22T00:42:22;4.70;;;2.53;;
39032;SDS011;24794;51.982;5.878;2023-06-22T00:43:22;4.55;;;2.60;;
39032;SDS011;24794;51.982;5.878;2023-06-22T00:44:23;5.55;;;3.00;;
39032;SDS011;24794;51.982;5.878;2023-06-22T00:45:24;3.42;;;2.50;;
39032;SDS011;24794;51.982;5.878;2023-06-22T00:46:25;4.10;;;2.80;;
39032;SDS011;24794;51.982;5.878;2023-06-22T00:47:26;3.80;;;2.60;;
39032;SDS011;24794;51.982;5.878;2023-06-22T00:48:27;3.90;;;2.60;;
39032;SDS011;24794;51.982;5.878;2023-06-22T00:49:28;5.95;;;2.83;;
39032;SDS011;24794;51.982;5.878;2023-06-22T00:50:30;3.42;;;2.47;;
39032;SDS011;24794;51.982;5.878;2023-06-22T00:51:35;4.70;;;2.40;;
39032;SDS011;24794;51.982;5.878;2023-06-22T00:52:38;3.78;;;2.30;;
39032;SDS011;24794;51.982;5.878;2023-06-22T00:53:43;4.47;;;2.33;;
39032;SDS011;24794;51.982;5.878;2023-06-22T00:54:43;3.75;;;2.40;;
39032;SDS011;24794;51.982;5.878;2023-06-22T00:55:45;3.45;;;2.40;;
39032;SDS011;24794;51.982;5.878;2023-06-22T00:56:53;4.90;;;2.20;;
39032;SDS011;24794;51.982;5.878;2023-06-22T00:57:57;4.30;;;2.42;;
39032;SDS011;24794;51.982;5.878;2023-06-22T00:58:58;4.70;;;2.00;;
39032;SDS011;24794;51.982;5.878;2023-06-22T01:00:00;5.20;;;2.40;;
39032;SDS011;24794;51.982;5.878;2023-06-22T01:01:00;4.13;;;2.47;;
39032;SDS011;24794;51.982;5.878;2023-06-22T01:02:02;4.28;;;2.65;;
39032;SDS011;24794;51.982;5.878;2023-06-22T01:03:03;4.72;;;2.80;;
39032;SDS011;24794;51.982;5.878;2023-06-22T01:04:08;3.58;;;2.40;;
39032;SDS011;24794;51.982;5.878;2023-06-22T01:05:09;4.85;;;2.40;;
39032;SDS011;24794;51.982;5.878;2023-06-22T01:06:11;3.28;;;2.72;;
39032;SDS011;24794;51.982;5.878;2023-06-22T01:09:55;4.97;;;2.53;;
39032;SDS011;24794;51.982;5.878;2023-06-22T01:12:47;3.67;;;2.35;;
39032;SDS011;24794;51.982;5.878;2023-06-22T01:14:31;4.70;;;2.50;;
39032;SDS011;24794;51.982;5.878;2023-06-22T01:15:29;4.72;;;2.65;;
39032;SDS011;24794;51.982;5.878;2023-06-22T01:16:35;5.13;;;2.45;;
39032;SDS011;24794;51.982;5.878;2023-06-22T01:17:42;4.03;;;2.95;;
39032;SDS011;24794;51.982;5.878;2023-06-22T01:18:44;5.38;;;2.65;;
39032;SDS011;24794;51.982;5.878;2023-06-22T01:19:50;4.65;;;2.50;;
39032;SDS011;24794;51.982;5.878;2023-06-22T01:20:57;4.68;;;2.38;;
39032;SDS011;24794;51.982;5.878;2023-06-22T01:21:58;2.80;;;2.15;;
39032;SDS011;24794;51.982;5.878;2023-06-22T01:24:30;3.08;;;2.42;;
39032;SDS011;24794;51.982;5.878;2023-06-22T01:25:43;4.95;;;2.47;;
39032;SDS011;24794;51.982;5.878;2023-06-22T01:27:09;3.45;;;2.58;;
39032;SDS011;24794;51.982;5.878;2023-06-22T01:28:47;3.90;;;2.30;;
39032;SDS011;24794;51.982;5.878;2023-06-22T01:29:50;3.97;;;2.42;;
39032;SDS011;24794;51.982;5.878;2023-06-22T01:30:52;2.83;;;2.00;;
39032;SDS011;24794;51.982;5.878;2023-06-22T01:32:03;4.50;;;2.45;;
39032;SDS011;24794;51.982;5.878;2023-06-22T01:33:05;5.13;;;2.42;;
39032;SDS011;24794;51.982;5.878;2023-06-22T01:34:07;5.68;;;2.55;;
39032;SDS011;24794;51.982;5.878;2023-06-22T01:35:09;3.13;;;2.25;;
39032;SDS011;24794;51.982;5.878;2023-06-22T01:36:12;3.28;;;2.15;;
39032;SDS011;24794;51.982;5.878;2023-06-22T01:37:14;6.22;;;2.00;;
39032;SDS011;24794;51.982;5.878;2023-06-22T01:38:15;3.75;;;2.25;;
39032;SDS011;24794;51.982;5.878;2023-06-22T01:39:16;4.78;;;2.22;;
39032;SDS011;24794;51.982;5.878;2023-06-22T01:40:18;3.92;;;2.47;;
39032;SDS011;24794;51.982;5.878;2023-06-22T01:41:20;3.50;;;2.08;;
39032;SDS011;24794;51.982;5.878;2023-06-22T01:42:23;4.85;;;2.40;;
39032;SDS011;24794;51.982;5.878;2023-06-22T01:43:28;4.95;;;2.38;;
39032;SDS011;24794;51.982;5.878;2023-06-22T01:44:29;2.60;;;2.05;;
39032;SDS011;24794;51.982;5.878;2023-06-22T01:45:30;3.97;;;2.47;;
39032;SDS011;24794;51.982;5.878;2023-06-22T01:46:30;3.92;;;2.30;;
39032;SDS011;24794;51.982;5.878;2023-06-22T01:47:32;3.03;;;2.05;;
39032;SDS011;24794;51.982;5.878;2023-06-22T01:48:34;5.45;;;2.70;;
39032;SDS011;24794;51.982;5.878;2023-06-22T01:49:34;3.60;;;2.60;;
39032;SDS011;24794;51.982;5.878;2023-06-22T01:50:35;3.45;;;2.78;;
39032;SDS011;24794;51.982;5.878;2023-06-22T01:51:36;4.05;;;2.58;;
39032;SDS011;24794;51.982;5.878;2023-06-22T01:52:36;3.60;;;2.63;;
39032;SDS011;24794;51.982;5.878;2023-06-22T01:53:37;4.10;;;2.60;;
39032;SDS011;24794;51.982;5.878;2023-06-22T01:54:39;3.50;;;2.60;;
39032;SDS011;24794;51.982;5.878;2023-06-22T01:55:40;5.00;;;2.90;;
39032;SDS011;24794;51.982;5.878;2023-06-22T01:56:40;5.47;;;3.17;;
39032;SDS011;24794;51.982;5.878;2023-06-22T01:57:41;4.78;;;2.95;;
39032;SDS011;24794;51.982;5.878;2023-06-22T01:58:44;5.40;;;2.80;;
39032;SDS011;24794;51.982;5.878;2023-06-22T02:00:01;3.00;;;2.28;;
39032;SDS011;24794;51.982;5.878;2023-06-22T02:01:12;3.78;;;2.85;;
39032;SDS011;24794;51.982;5.878;2023-06-22T02:02:17;5.65;;;2.63;;
39032;SDS011;24794;51.982;5.878;2023-06-22T02:03:23;4.57;;;2.65;;
39032;SDS011;24794;51.982;5.878;2023-06-22T02:04:33;4.82;;;3.00;;
39032;SDS011;24794;51.982;5.878;2023-06-22T02:05:38;4.75;;;3.08;;
39032;SDS011;24794;51.982;5.878;2023-06-22T02:06:45;4.53;;;2.60;;
39032;SDS011;24794;51.982;5.878;2023-06-22T02:08:05;3.35;;;2.53;;
39032;SDS011;24794;51.982;5.878;2023-06-22T02:09:08;5.85;;;2.80;;
39032;SDS011;24794;51.982;5.878;2023-06-22T02:10:12;3.83;;;2.70;;
39032;SDS011;24794;51.982;5.878;2023-06-22T02:11:15;3.95;;;2.92;;
39032;SDS011;24794;51.982;5.878;2023-06-22T02:12:21;5.30;;;3.10;;
39032;SDS011;24794;51.982;5.878;2023-06-22T02:13:24;4.53;;;3.00;;
39032;SDS011;24794;51.982;5.878;2023-06-22T02:14:25;5.35;;;3.15;;
39032;SDS011;24794;51.982;5.878;2023-06-22T02:15:26;5.57;;;3.60;;
39032;SDS011;24794;51.982;5.878;2023-06-22T02:16:27;7.78;;;3.33;;
39032;SDS011;24794;51.982;5.878;2023-06-22T02:17:31;5.93;;;3.10;;
39032;SDS011;24794;51.982;5.878;2023-06-22T02:18:33;6.25;;;3.92;;
39032;SDS011;24794;51.982;5.878;2023-06-22T02:19:36;5.25;;;3.60;;
39032;SDS011;24794;51.982;5.878;2023-06-22T02:20:37;4.63;;;3.40;;
39032;SDS011;24794;51.982;5.878;2023-06-22T02:21:38;4.65;;;3.30;;
39032;SDS011;24794;51.982;5.878;2023-06-22T02:22:39;5.68;;;3.30;;
39032;SDS011;24794;51.982;5.878;2023-06-22T02:23:39;4.75;;;3.40;;
39032;SDS011;24794;51.982;5.878;2023-06-22T02:24:40;5.32;;;2.95;;
39032;SDS011;24794;51.982;5.878;2023-06-22T02:25:40;4.68;;;2.92;;
39032;SDS011;24794;51.982;5.878;2023-06-22T02:26:44;5.93;;;3.28;;
39032;SDS011;24794;51.982;5.878;2023-06-22T02:27:45;5.50;;;3.45;;
39032;SDS011;24794;51.982;5.878;2023-06-22T02:28:46;5.00;;;3.20;;
39032;SDS011;24794;51.982;5.878;2023-06-22T02:29:46;5.80;;;2.95;;
39032;SDS011;24794;51.982;5.878;2023-06-22T02:30:47;4.80;;;3.00;;
39032;SDS011;24794;51.982;5.878;2023-06-22T02:31:47;7.18;;;3.60;;
39032;SDS011;24794;51.982;5.878;2023-06-22T02:32:48;6.05;;;3.63;;
39032;SDS011;24794;51.982;5.878;2023-06-22T02:33:48;4.35;;;3.17;;
39032;SDS011;24794;51.982;5.878;2023-06-22T02:34:49;5.85;;;3.45;;
39032;SDS011;24794;51.982;5.878;2023-06-22T02:35:50;6.72;;;4.00;;
39032;SDS011;24794;51.982;5.878;2023-06-22T02:36:51;8.50;;;4.20;;
39032;SDS011;24794;51.982;5.878;2023-06-22T02:37:51;6.53;;;4.68;;
39032;SDS011;24794;51.982;5.878;2023-06-22T02:38:53;5.35;;;3.70;;
39032;SDS011;24794;51.982;5.878;2023-06-22T02:39:56;5.50;;;3.20;;
39032;SDS011;24794;51.982;5.878;2023-06-22T02:40:56;5.18;;;3.15;;
39032;SDS011;24794;51.982;5.878;2023-06-22T02:41:57;4.07;;;3.28;;
39032;SDS011;24794;51.982;5.878;2023-06-22T02:42:58;5.50;;;3.35;;
39032;SDS011;24794;51.982;5.878;2023-06-22T02:44:01;5.50;;;3.45;;
39032;SDS011;24794;51.982;5.878;2023-06-22T02:45:02;5.13;;;3.78;;
39032;SDS011;24794;51.982;5.878;2023-06-22T02:46:03;6.57;;;3.47;;
39032;SDS011;24794;51.982;5.878;2023-06-22T02:47:03;5.50;;;3.50;;
39032;SDS011;24794;51.982;5.878;2023-06-22T02:48:04;8.90;;;3.63;;
39032;SDS011;24794;51.982;5.878;2023-06-22T02:49:05;5.25;;;3.88;;
39032;SDS011;24794;51.982;5.878;2023-06-22T02:50:05;5.70;;;3.90;;
39032;SDS011;24794;51.982;5.878;2023-06-22T02:51:06;7.75;;;4.00;;
39032;SDS011;24794;51.982;5.878;2023-06-22T02:52:07;6.93;;;4.25;;
39032;SDS011;24794;51.982;5.878;2023-06-22T02:53:08;6.30;;;3.33;;
39032;SDS011;24794;51.982;5.878;2023-06-22T02:54:08;5.22;;;3.60;;
39032;SDS011;24794;51.982;5.878;2023-06-22T02:55:09;5.38;;;3.78;;
39032;SDS011;24794;51.982;5.878;2023-06-22T02:56:09;5.78;;;4.28;;
39032;SDS011;24794;51.982;5.878;2023-06-22T02:57:10;6.35;;;3.65;;
39032;SDS011;24794;51.982;5.878;2023-06-22T02:58:13;7.55;;;3.95;;
39032;SDS011;24794;51.982;5.878;2023-06-22T02:59:13;6.70;;;3.70;;
39032;SDS011;24794;51.982;5.878;2023-06-22T03:00:14;4.95;;;4.05;;
39032;SDS011;24794;51.982;5.878;2023-06-22T03:01:17;5.10;;;3.80;;
39032;SDS011;24794;51.982;5.878;2023-06-22T03:02:24;5.72;;;3.95;;
39032;SDS011;24794;51.982;5.878;2023-06-22T03:03:26;5.40;;;3.92;;
39032;SDS011;24794;51.982;5.878;2023-06-22T03:04:26;4.72;;;3.97;;
39032;SDS011;24794;51.982;5.878;2023-06-22T03:05:27;6.30;;;4.30;;
39032;SDS011;24794;51.982;5.878;2023-06-22T03:06:27;5.45;;;3.85;;
39032;SDS011;24794;51.982;5.878;2023-06-22T03:07:28;4.68;;;3.58;;
39032;SDS011;24794;51.982;5.878;2023-06-22T03:08:30;4.43;;;3.63;;
39032;SDS011;24794;51.982;5.878;2023-06-22T03:09:30;5.45;;;3.80;;
39032;SDS011;24794;51.982;5.878;2023-06-22T03:10:31;6.22;;;3.80;;
39032;SDS011;24794;51.982;5.878;2023-06-22T03:11:32;7.13;;;3.47;;
39032;SDS011;24794;51.982;5.878;2023-06-22T03:12:33;5.38;;;3.30;;
39032;SDS011;24794;51.982;5.878;2023-06-22T03:13:34;7.20;;;3.75;;
39032;SDS011;24794;51.982;5.878;2023-06-22T03:14:34;6.85;;;3.88;;
39032;SDS011;24794;51.982;5.878;2023-06-22T03:15:35;6.43;;;3.70;;
39032;SDS011;24794;51.982;5.878;2023-06-22T03:16:35;7.10;;;3.92;;
39032;SDS011;24794;51.982;5.878;2023-06-22T03:17:37;6.28;;;4.20;;
39032;SDS011;24794;51.982;5.878;2023-06-22T03:18:41;6.57;;;4.63;;
39032;SDS011;24794;51.982;5.878;2023-06-22T03:19:41;8.60;;;4.95;;
39032;SDS011;24794;51.982;5.878;2023-06-22T03:20:42;9.85;;;5.18;;
39032;SDS011;24794;51.982;5.878;2023-06-22T03:21:42;7.70;;;5.10;;
39032;SDS011;24794;51.982;5.878;2023-06-22T03:22:43;6.72;;;4.60;;
39032;SDS011;24794;51.982;5.878;2023-06-22T03:23:43;7.47;;;4.82;;
39032;SDS011;24794;51.982;5.878;2023-06-22T03:24:44;7.53;;;5.18;;
39032;SDS011;24794;51.982;5.878;2023-06-22T03:25:44;8.60;;;5.70;;
39032;SDS011;24794;51.982;5.878;2023-06-22T03:26:45;7.60;;;5.82;;
39032;SDS011;24794;51.982;5.878;2023-06-22T03:27:46;7.53;;;5.50;;
39032;SDS011;24794;51.982;5.878;2023-06-22T03:28:48;9.43;;;6.55;;
39032;SDS011;24794;51.982;5.878;2023-06-22T03:29:48;7.72;;;6.00;;
39032;SDS011;24794;51.982;5.878;2023-06-22T03:30:49;9.50;;;6.25;;
39032;SDS011;24794;51.982;5.878;2023-06-22T03:31:49;9.10;;;6.07;;
39032;SDS011;24794;51.982;5.878;2023-06-22T03:32:50;10.43;;;5.90;;
39032;SDS011;24794;51.982;5.878;2023-06-22T03:33:51;7.82;;;5.80;;
39032;SDS011;24794;51.982;5.878;2023-06-22T03:34:51;7.40;;;5.72;;
39032;SDS011;24794;51.982;5.878;2023-06-22T03:35:52;8.55;;;6.00;;
39032;SDS011;24794;51.982;5.878;2023-06-22T03:36:53;8.07;;;6.00;;
39032;SDS011;24794;51.982;5.878;2023-06-22T03:37:54;9.05;;;7.00;;
39032;SDS011;24794;51.982;5.878;2023-06-22T03:38:55;10.38;;;6.70;;
39032;SDS011;24794;51.982;5.878;2023-06-22T03:39:55;9.57;;;6.00;;
39032;SDS011;24794;51.982;5.878;2023-06-22T03:40:56;7.38;;;5.85;;
39032;SDS011;24794;51.982;5.878;2023-06-22T03:41:57;9.00;;;5.57;;
39032;SDS011;24794;51.982;5.878;2023-06-22T03:42:58;7.63;;;5.90;;
39032;SDS011;24794;51.982;5.878;2023-06-22T03:43:58;9.85;;;6.00;;
39032;SDS011;24794;51.982;5.878;2023-06-22T03:44:59;8.63;;;5.60;;
39032;SDS011;24794;51.982;5.878;2023-06-22T03:46:00;9.48;;;5.40;;
39032;SDS011;24794;51.982;5.878;2023-06-22T03:47:01;9.38;;;6.25;;
39032;SDS011;24794;51.982;5.878;2023-06-22T03:48:03;8.15;;;5.50;;
39032;SDS011;24794;51.982;5.878;2023-06-22T03:49:03;10.52;;;6.20;;
39032;SDS011;24794;51.982;5.878;2023-06-22T03:50:04;9.70;;;5.93;;
39032;SDS011;24794;51.982;5.878;2023-06-22T03:51:06;6.78;;;5.63;;
39032;SDS011;24794;51.982;5.878;2023-06-22T03:52:06;9.27;;;5.85;;
39032;SDS011;24794;51.982;5.878;2023-06-22T03:53:07;9.25;;;6.65;;
39032;SDS011;24794;51.982;5.878;2023-06-22T03:54:08;10.18;;;6.53;;
39032;SDS011;24794;51.982;5.878;2023-06-22T03:55:08;7.80;;;6.25;;
39032;SDS011;24794;51.982;5.878;2023-06-22T03:56:09;20.33;;;7.30;;
39032;SDS011;24794;51.982;5.878;2023-06-22T03:57:10;8.77;;;6.90;;
39032;SDS011;24794;51.982;5.878;2023-06-22T03:58:11;7.55;;;6.35;;
39032;SDS011;24794;51.982;5.878;2023-06-22T03:59:12;8.68;;;6.43;;
39032;SDS011;24794;51.982;5.878;2023-06-22T04:00:12;9.30;;;7.07;;
39032;SDS011;24794;51.982;5.878;2023-06-22T04:01:13;10.82;;;7.00;;
39032;SDS011;24794;51.982;5.878;2023-06-22T04:02:14;10.43;;;6.82;;
39032;SDS011;24794;51.982;5.878;2023-06-22T04:03:15;9.35;;;6.97;;
39032;SDS011;24794;51.982;5.878;2023-06-22T04:04:16;8.85;;;6.10;;
39032;SDS011;24794;51.982;5.878;2023-06-22T04:05:17;8.93;;;6.50;;
39032;SDS011;24794;51.982;5.878;2023-06-22T04:06:19;9.63;;;7.50;;
39032;SDS011;24794;51.982;5.878;2023-06-22T04:07:19;11.38;;;7.38;;
39032;SDS011;24794;51.982;5.878;2023-06-22T04:08:20;11.23;;;7.35;;
39032;SDS011;24794;51.982;5.878;2023-06-22T04:09:20;8.20;;;6.82;;
39032;SDS011;24794;51.982;5.878;2023-06-22T04:10:21;10.10;;;6.57;;
39032;SDS011;24794;51.982;5.878;2023-06-22T04:11:22;10.15;;;7.20;;
39032;SDS011;24794;51.982;5.878;2023-06-22T04:12:22;10.45;;;7.22;;
39032;SDS011;24794;51.982;5.878;2023-06-22T04:13:23;8.02;;;6.88;;
39032;SDS011;24794;51.982;5.878;2023-06-22T04:14:23;8.95;;;7.00;;
39032;SDS011;24794;51.982;5.878;2023-06-22T04:15:24;12.30;;;7.57;;
39032;SDS011;24794;51.982;5.878;2023-06-22T04:16:24;9.98;;;7.93;;
39032;SDS011;24794;51.982;5.878;2023-06-22T04:17:25;12.38;;;7.47;;
39032;SDS011;24794;51.982;5.878;2023-06-22T04:18:25;13.20;;;8.20;;
39032;SDS011;24794;51.982;5.878;2023-06-22T04:19:26;12.68;;;9.63;;
39032;SDS011;24794;51.982;5.878;2023-06-22T04:20:26;12.85;;;9.60;;
39032;SDS011;24794;51.982;5.878;2023-06-22T04:21:27;12.68;;;9.35;;
39032;SDS011;24794;51.982;5.878;2023-06-22T04:22:27;11.52;;;9.15;;
39032;SDS011;24794;51.982;5.878;2023-06-22T04:23:28;13.48;;;9.98;;
39032;SDS011;24794;51.982;5.878;2023-06-22T04:24:28;14.30;;;9.35;;
39032;SDS011;24794;51.982;5.878;2023-06-22T04:25:29;12.50;;;9.15;;
39032;SDS011;24794;51.982;5.878;2023-06-22T04:26:29;14.10;;;8.85;;
39032;SDS011;24794;51.982;5.878;2023-06-22T04:27:30;13.02;;;9.00;;
39032;SDS011;24794;51.982;5.878;2023-06-22T04:28:30;13.20;;;9.23;;
39032;SDS011;24794;51.982;5.878;2023-06-22T04:29:35;12.38;;;9.50;;
39032;SDS011;24794;51.982;5.878;2023-06-22T04:30:35;13.75;;;8.85;;
39032;SDS011;24794;51.982;5.878;2023-06-22T04:31:36;10.60;;;8.93;;
39032;SDS011;24794;51.982;5.878;2023-06-22T04:32:36;12.32;;;9.18;;
39032;SDS011;24794;51.982;5.878;2023-06-22T04:33:37;12.40;;;8.27;;
39032;SDS011;24794;51.982;5.878;2023-06-22T04:34:40;14.77;;;9.85;;
39032;SDS011;24794;51.982;5.878;2023-06-22T04:35:41;13.32;;;9.55;;
39032;SDS011;24794;51.982;5.878;2023-06-22T04:36:45;13.75;;;10.18;;
39032;SDS011;24794;51.982;5.878;2023-06-22T04:37:45;14.15;;;10.10;;
39032;SDS011;24794;51.982;5.878;2023-06-22T04:38:48;12.57;;;9.20;;
39032;SDS011;24794;51.982;5.878;2023-06-22T04:39:52;13.45;;;9.63;;
39032;SDS011;24794;51.982;5.878;2023-06-22T04:40:53;13.52;;;9.27;;
39032;SDS011;24794;51.982;5.878;2023-06-22T04:41:53;10.93;;;8.90;;
39032;SDS011;24794;51.982;5.878;2023-06-22T04:43:00;11.52;;;8.70;;
39032;SDS011;24794;51.982;5.878;2023-06-22T04:44:02;13.35;;;9.75;;
39032;SDS011;24794;51.982;5.878;2023-06-22T04:45:05;14.45;;;9.25;;
39032;SDS011;24794;51.982;5.878;2023-06-22T04:46:05;13.45;;;9.25;;
39032;SDS011;24794;51.982;5.878;2023-06-22T04:47:06;12.23;;;9.57;;
39032;SDS011;24794;51.982;5.878;2023-06-22T04:48:08;13.50;;;10.60;;
39032;SDS011;24794;51.982;5.878;2023-06-22T04:49:09;14.05;;;10.75;;
39032;SDS011;24794;51.982;5.878;2023-06-22T04:50:10;13.57;;;9.85;;
39032;SDS011;24794;51.982;5.878;2023-06-22T04:51:13;14.75;;;10.23;;
39032;SDS011;24794;51.982;5.878;2023-06-22T04:52:14;15.00;;;11.52;;
39032;SDS011;24794;51.982;5.878;2023-06-22T04:53:17;14.70;;;10.80;;
39032;SDS011;24794;51.982;5.878;2023-06-22T04:54:18;16.67;;;11.02;;
39032;SDS011;24794;51.982;5.878;2023-06-22T04:55:19;13.95;;;10.50;;
39032;SDS011;24794;51.982;5.878;2023-06-22T04:56:20;16.63;;;10.95;;
39032;SDS011;24794;51.982;5.878;2023-06-22T04:57:21;15.27;;;9.93;;
39032;SDS011;24794;51.982;5.878;2023-06-22T04:58:32;14.88;;;10.50;;
39032;SDS011;24794;51.982;5.878;2023-06-22T04:59:33;11.35;;;9.35;;
39032;SDS011;24794;51.982;5.878;2023-06-22T05:00:33;12.60;;;9.70;;
39032;SDS011;24794;51.982;5.878;2023-06-22T05:01:36;11.30;;;9.00;;
39032;SDS011;24794;51.982;5.878;2023-06-22T05:02:37;12.80;;;9.38;;
39032;SDS011;24794;51.982;5.878;2023-06-22T05:03:38;12.25;;;9.30;;
39032;SDS011;24794;51.982;5.878;2023-06-22T05:04:41;14.05;;;9.77;;
39032;SDS011;24794;51.982;5.878;2023-06-22T05:05:42;14.98;;;10.10;;
39032;SDS011;24794;51.982;5.878;2023-06-22T05:06:42;13.93;;;9.55;;
39032;SDS011;24794;51.982;5.878;2023-06-22T05:07:43;12.63;;;9.10;;
39032;SDS011;24794;51.982;5.878;2023-06-22T05:08:56;12.20;;;8.93;;
39032;SDS011;24794;51.982;5.878;2023-06-22T05:10:00;12.40;;;9.32;;
39032;SDS011;24794;51.982;5.878;2023-06-22T05:11:04;10.82;;;9.05;;
39032;SDS011;24794;51.982;5.878;2023-06-22T05:12:05;15.88;;;9.18;;
39032;SDS011;24794;51.982;5.878;2023-06-22T05:13:07;10.25;;;8.38;;
39032;SDS011;24794;51.982;5.878;2023-06-22T05:14:08;10.50;;;8.43;;
39032;SDS011;24794;51.982;5.878;2023-06-22T05:15:09;12.60;;;9.80;;
39032;SDS011;24794;51.982;5.878;2023-06-22T05:16:10;14.65;;;9.23;;
39032;SDS011;24794;51.982;5.878;2023-06-22T05:17:10;11.85;;;9.32;;
39032;SDS011;24794;51.982;5.878;2023-06-22T05:18:13;14.80;;;9.90;;
39032;SDS011;24794;51.982;5.878;2023-06-22T05:19:14;14.10;;;9.82;;
39032;SDS011;24794;51.982;5.878;2023-06-22T05:20:14;12.32;;;9.20;;
39032;SDS011;24794;51.982;5.878;2023-06-22T05:21:17;13.77;;;9.43;;
39032;SDS011;24794;51.982;5.878;2023-06-22T05:22:19;12.15;;;9.45;;
39032;SDS011;24794;51.982;5.878;2023-06-22T05:23:19;15.82;;;10.93;;
39032;SDS011;24794;51.982;5.878;2023-06-22T05:24:20;15.02;;;10.07;;
39032;SDS011;24794;51.982;5.878;2023-06-22T05:25:20;13.75;;;10.25;;
39032;SDS011;24794;51.982;5.878;2023-06-22T05:26:21;14.15;;;10.20;;
39032;SDS011;24794;51.982;5.878;2023-06-22T05:27:22;12.95;;;9.73;;
39032;SDS011;24794;51.982;5.878;2023-06-22T05:28:22;12.45;;;9.60;;
39032;SDS011;24794;51.982;5.878;2023-06-22T05:29:23;12.98;;;9.77;;
39032;SDS011;24794;51.982;5.878;2023-06-22T05:30:23;15.52;;;9.98;;
39032;SDS011;24794;51.982;5.878;2023-06-22T05:31:24;13.48;;;9.75;;
39032;SDS011;24794;51.982;5.878;2023-06-22T05:32:25;15.07;;;9.40;;
39032;SDS011;24794;51.982;5.878;2023-06-22T05:33:25;10.95;;;8.40;;
39032;SDS011;24794;51.982;5.878;2023-06-22T05:34:26;13.18;;;9.57;;
39032;SDS011;24794;51.982;5.878;2023-06-22T05:35:26;11.95;;;9.15;;
39032;SDS011;24794;51.982;5.878;2023-06-22T05:36:27;10.70;;;8.98;;
39032;SDS011;24794;51.982;5.878;2023-06-22T05:37:28;14.63;;;8.80;;
39032;SDS011;24794;51.982;5.878;2023-06-22T05:38:28;13.23;;;9.00;;
39032;SDS011;24794;51.982;5.878;2023-06-22T05:39:29;13.02;;;9.23;;
39032;SDS011;24794;51.982;5.878;2023-06-22T05:40:29;13.02;;;9.75;;
39032;SDS011;24794;51.982;5.878;2023-06-22T05:41:30;11.65;;;8.25;;
39032;SDS011;24794;51.982;5.878;2023-06-22T05:42:30;14.57;;;10.48;;
39032;SDS011;24794;51.982;5.878;2023-06-22T05:43:31;13.90;;;9.93;;
39032;SDS011;24794;51.982;5.878;2023-06-22T05:44:32;13.80;;;10.35;;
39032;SDS011;24794;51.982;5.878;2023-06-22T05:45:33;15.15;;;10.77;;
39032;SDS011;24794;51.982;5.878;2023-06-22T05:46:34;15.77;;;10.20;;
39032;SDS011;24794;51.982;5.878;2023-06-22T05:47:34;12.77;;;9.85;;
39032;SDS011;24794;51.982;5.878;2023-06-22T05:48:35;13.27;;;9.55;;
39032;SDS011;24794;51.982;5.878;2023-06-22T05:49:35;14.25;;;9.88;;
39032;SDS011;24794;51.982;5.878;2023-06-22T05:50:36;13.63;;;9.13;;
39032;SDS011;24794;51.982;5.878;2023-06-22T05:51:37;10.60;;;8.45;;
39032;SDS011;24794;51.982;5.878;2023-06-22T05:52:37;12.02;;;9.55;;
39032;SDS011;24794;51.982;5.878;2023-06-22T05:53:38;14.00;;;9.23;;
39032;SDS011;24794;51.982;5.878;2023-06-22T05:54:38;11.07;;;8.68;;
39032;SDS011;24794;51.982;5.878;2023-06-22T05:55:39;12.27;;;9.02;;
39032;SDS011;24794;51.982;5.878;2023-06-22T05:56:39;11.35;;;8.10;;
39032;SDS011;24794;51.982;5.878;2023-06-22T05:57:40;13.50;;;9.45;;
39032;SDS011;24794;51.982;5.878;2023-06-22T05:58:40;10.60;;;9.00;;
39032;SDS011;24794;51.982;5.878;2023-06-22T05:59:41;12.65;;;8.38;;
39032;SDS011;24794;51.982;5.878;2023-06-22T06:00:42;11.07;;;7.75;;
39032;SDS011;24794;51.982;5.878;2023-06-22T06:01:43;10.52;;;8.77;;
39032;SDS011;24794;51.982;5.878;2023-06-22T06:02:43;12.55;;;8.25;;
39032;SDS011;24794;51.982;5.878;2023-06-22T06:03:44;12.80;;;9.77;;
39032;SDS011;24794;51.982;5.878;2023-06-22T06:04:44;10.20;;;8.40;;
39032;SDS011;24794;51.982;5.878;2023-06-22T06:05:45;12.27;;;9.60;;
39032;SDS011;24794;51.982;5.878;2023-06-22T06:06:45;10.52;;;8.88;;
39032;SDS011;24794;51.982;5.878;2023-06-22T06:07:49;11.50;;;7.60;;
39032;SDS011;24794;51.982;5.878;2023-06-22T06:08:50;10.95;;;7.75;;
39032;SDS011;24794;51.982;5.878;2023-06-22T06:09:50;11.63;;;8.90;;
39032;SDS011;24794;51.982;5.878;2023-06-22T06:10:51;13.27;;;8.88;;
39032;SDS011;24794;51.982;5.878;2023-06-22T06:11:53;11.10;;;8.80;;
39032;SDS011;24794;51.982;5.878;2023-06-22T06:12:54;11.95;;;7.78;;
39032;SDS011;24794;51.982;5.878;2023-06-22T06:13:54;10.10;;;8.00;;
39032;SDS011;24794;51.982;5.878;2023-06-22T06:14:55;13.13;;;8.80;;
39032;SDS011;24794;51.982;5.878;2023-06-22T06:15:56;12.65;;;9.10;;
39032;SDS011;24794;51.982;5.878;2023-06-22T06:16:57;12.60;;;10.23;;